createdAt,value
2018-02-04T00:00:41.103Z,26.10
2018-02-04T00:03:08.561Z,24.20
2018-02-04T00:05:36.803Z,22.43
2018-02-04T00:08:04.319Z,25.20
2018-02-04T00:10:32.551Z,25.23
2018-02-04T00:13:00.069Z,26.43
2018-02-04T00:15:27.559Z,25.73
2018-02-04T00:17:55.057Z,23.40
2018-02-04T00:20:22.521Z,20.23
2018-02-04T00:22:50.773Z,24.47
2018-02-04T00:25:18.250Z,24.57
2018-02-04T00:27:45.708Z,23.60
2018-02-04T00:30:13.239Z,25.07
2018-02-04T00:32:40.727Z,25.23
2018-02-04T00:35:08.188Z,26.00
2018-02-04T00:37:35.696Z,28.97
2018-02-04T00:40:03.203Z,23.80
2018-02-04T00:42:30.717Z,24.80
2018-02-04T00:44:58.218Z,21.57
2018-02-04T00:47:25.728Z,20.63
2018-02-04T00:49:53.190Z,21.37
2018-02-04T00:52:20.665Z,20.60
2018-02-04T00:54:48.159Z,21.00
2018-02-04T00:57:15.634Z,21.77
2018-02-04T00:59:43.966Z,23.63
2018-02-04T01:02:11.464Z,25.83
2018-02-04T01:04:39.736Z,25.07
2018-02-04T01:07:07.171Z,24.80
2018-02-04T01:09:34.796Z,20.30
2018-02-04T01:12:02.207Z,23.60
2018-02-04T01:14:29.655Z,21.57
2018-02-04T01:16:57.111Z,23.73
2018-02-04T01:19:24.610Z,21.67
2018-02-04T01:21:52.823Z,21.23
2018-02-04T01:24:20.319Z,24.00
2018-02-04T01:26:47.758Z,22.17
2018-02-04T01:29:15.230Z,22.60
2018-02-04T01:31:42.738Z,21.20
2018-02-04T01:34:10.191Z,18.90
2018-02-04T01:36:37.667Z,19.57
2018-02-04T01:39:05.143Z,24.07
2018-02-04T01:41:32.622Z,19.70
2018-02-04T01:44:00.074Z,19.43
2018-02-04T01:46:27.830Z,19.37
2018-02-04T01:48:55.299Z,18.83
2018-02-04T01:51:22.756Z,21.40
2018-02-04T01:53:50.215Z,18.27
2018-02-04T01:56:17.692Z,17.77
2018-02-04T01:58:45.910Z,20.80
2018-02-04T02:01:13.592Z,20.63
2018-02-04T02:03:41.055Z,15.83
2018-02-04T02:06:08.528Z,23.20
2018-02-04T02:08:36.475Z,18.83
2018-02-04T02:11:03.927Z,20.50
2018-02-04T02:13:31.383Z,20.53
2018-02-04T02:15:58.846Z,16.53
2018-02-04T02:18:26.339Z,21.23
2018-02-04T02:20:54.609Z,17.53
2018-02-04T02:23:22.073Z,17.83
2018-02-04T02:25:49.533Z,19.67
2018-02-04T02:28:17.005Z,22.93
2018-02-04T02:30:45.283Z,18.90
2018-02-04T02:33:13.558Z,21.67
2018-02-04T02:35:41.765Z,19.10
2018-02-04T02:38:09.225Z,17.93
2018-02-04T02:40:36.703Z,23.70
2018-02-04T02:43:04.219Z,20.27
2018-02-04T02:45:32.463Z,17.00
2018-02-04T02:47:59.981Z,20.70
2018-02-04T02:50:27.384Z,19.50
2018-02-04T02:52:55.919Z,21.23
2018-02-04T02:55:23.375Z,18.67
2018-02-04T02:57:50.829Z,20.60
2018-02-04T03:00:18.295Z,18.80
2018-02-04T03:02:45.766Z,17.93
2018-02-04T03:05:13.204Z,21.77
2018-02-04T03:07:40.675Z,19.23
2018-02-04T03:10:08.197Z,20.77
2018-02-04T03:12:36.447Z,17.33
2018-02-04T03:15:04.299Z,21.00
2018-02-04T03:17:31.762Z,21.03
2018-02-04T03:19:59.254Z,17.63
2018-02-04T03:22:27.503Z,21.10
2018-02-04T03:24:54.964Z,18.10
2018-02-04T03:27:22.424Z,21.77
2018-02-04T03:29:49.886Z,19.50
2018-02-04T03:32:17.445Z,19.27
2018-02-04T03:34:44.905Z,19.03
2018-02-04T03:37:12.371Z,20.80
2018-02-04T03:39:40.820Z,17.80
2018-02-04T03:42:08.280Z,18.97
2018-02-04T03:44:35.762Z,19.20
2018-02-04T03:47:03.208Z,21.43
2018-02-04T03:49:30.670Z,20.07
2018-02-04T03:51:58.141Z,22.07
2018-02-04T03:54:25.605Z,21.30
2018-02-04T03:56:53.139Z,18.43
2018-02-04T03:59:20.621Z,21.33
2018-02-04T04:01:48.830Z,22.97
2018-02-04T04:04:16.311Z,19.00
2018-02-04T04:06:43.775Z,19.90
2018-02-04T04:09:11.229Z,17.77
2018-02-04T04:11:38.985Z,18.67
2018-02-04T04:14:06.447Z,18.43
2018-02-04T04:16:33.903Z,16.17
2018-02-04T04:19:01.374Z,17.07
2018-02-04T04:21:28.943Z,17.90
2018-02-04T04:23:56.416Z,14.50
2018-02-04T04:26:23.865Z,11.30
2018-02-04T04:28:51.324Z,13.87
2018-02-04T04:31:18.782Z,16.23
2018-02-04T04:33:46.252Z,11.47
2018-02-04T04:36:13.715Z,10.97
2018-02-04T04:38:41.954Z,14.80
2018-02-04T04:41:09.414Z,13.60
2018-02-04T04:43:36.904Z,12.63
2018-02-04T04:46:04.359Z,12.47
2018-02-04T04:48:31.816Z,13.77
2018-02-04T04:50:59.282Z,10.90
2018-02-04T04:53:27.514Z,13.37
2018-02-04T04:55:54.970Z,13.30
2018-02-04T04:58:22.473Z,11.90
2018-02-04T05:00:50.705Z,14.80
2018-02-04T05:03:18.147Z,9.47
2018-02-04T05:05:45.880Z,12.07
2018-02-04T05:08:14.110Z,11.37
2018-02-04T05:10:41.556Z,11.13
2018-02-04T05:13:09.038Z,11.30
2018-02-04T05:15:36.514Z,11.53
2018-02-04T05:18:04.000Z,12.33
2018-02-04T05:20:32.245Z,10.33
2018-02-04T05:22:59.710Z,9.73
2018-02-04T05:25:27.165Z,10.80
2018-02-04T05:27:54.630Z,8.57
2018-02-04T05:30:22.067Z,8.40
2018-02-04T05:32:49.522Z,8.60
2018-02-04T05:35:16.982Z,9.57
2018-02-04T05:37:44.432Z,9.50
2018-02-04T05:40:11.884Z,8.53
2018-02-04T05:42:39.353Z,10.53
2018-02-04T05:45:06.809Z,8.57
2018-02-04T05:47:34.260Z,8.73
2018-02-04T05:50:01.731Z,8.27
2018-02-04T05:52:29.207Z,8.83
2018-02-04T05:54:56.643Z,7.50
2018-02-04T05:57:24.139Z,10.37
2018-02-04T05:59:52.356Z,7.50
2018-02-04T06:02:19.822Z,8.30
2018-02-04T06:04:47.331Z,8.43
2018-02-04T06:07:15.558Z,8.53
2018-02-04T06:09:43.061Z,5.90
2018-02-04T06:12:10.553Z,9.10
2018-02-04T06:14:38.333Z,9.20
2018-02-04T06:17:05.791Z,7.40
2018-02-04T06:19:33.303Z,6.77
2018-02-04T06:22:01.540Z,6.60
2018-02-04T06:24:28.987Z,5.97
2018-02-04T06:26:56.468Z,9.13
2018-02-04T06:29:23.927Z,7.23
2018-02-04T06:31:51.407Z,6.63
2018-02-04T06:34:19.746Z,8.20
2018-02-04T06:36:47.242Z,6.97
2018-02-04T06:39:14.675Z,8.33
2018-02-04T06:41:42.235Z,6.10
2018-02-04T06:44:09.716Z,7.37
2018-02-04T06:46:37.157Z,7.40
2018-02-04T06:49:04.656Z,8.67
2018-02-04T06:51:32.893Z,9.93
2018-02-04T06:54:00.347Z,8.23
2018-02-04T06:56:27.876Z,9.33
2018-02-04T06:58:55.351Z,9.33
2018-02-04T07:01:22.838Z,9.00
2018-02-04T07:03:50.311Z,7.47
2018-02-04T07:06:18.743Z,9.10
2018-02-04T07:08:46.299Z,8.83
2018-02-04T07:11:13.784Z,7.50
2018-02-04T07:13:41.533Z,7.70
2018-02-04T07:16:09.043Z,8.93
2018-02-04T07:18:37.534Z,7.67
2018-02-04T07:21:05.011Z,7.43
2018-02-04T07:23:32.495Z,8.17
2018-02-04T07:25:59.948Z,8.30
2018-02-04T07:28:27.409Z,8.00
2018-02-04T07:30:54.862Z,9.30
2018-02-04T07:33:22.329Z,9.60
2018-02-04T07:35:49.818Z,9.00
2018-02-04T07:38:17.266Z,10.40
2018-02-04T07:40:44.934Z,7.50
2018-02-04T07:43:12.367Z,8.60
2018-02-04T07:45:39.808Z,8.57
2018-02-04T07:48:07.279Z,5.97
2018-02-04T07:50:34.712Z,9.50
2018-02-04T07:53:02.170Z,8.20
2018-02-04T07:55:29.640Z,8.80
2018-02-04T07:57:57.138Z,7.33
2018-02-04T08:00:24.590Z,8.60
2018-02-04T08:02:52.058Z,7.37
2018-02-04T08:05:19.620Z,9.33
2018-02-04T08:07:47.080Z,7.90
2018-02-04T08:10:14.563Z,11.93
2018-02-04T08:12:42.079Z,8.73
2018-02-04T08:15:09.525Z,9.57
2018-02-04T08:17:37.007Z,9.90
2018-02-04T08:20:04.446Z,9.37
2018-02-04T08:22:31.903Z,8.70
2018-02-04T08:24:59.503Z,10.83
2018-02-04T08:27:27.735Z,10.37
2018-02-04T08:29:55.234Z,9.13
2018-02-04T08:32:22.766Z,8.97
2018-02-04T08:34:50.239Z,8.77
2018-02-04T08:37:17.724Z,13.77
2018-02-04T08:39:45.275Z,9.70
2018-02-04T08:42:13.495Z,8.40
2018-02-04T08:44:40.947Z,10.50
2018-02-04T08:47:08.721Z,9.20
2018-02-04T08:49:36.739Z,36.43
2018-02-04T08:52:05.219Z,11.70
2018-02-04T08:54:32.756Z,10.63
2018-02-04T08:57:00.235Z,10.47
2018-02-04T08:59:27.699Z,9.80
2018-02-04T09:01:56.226Z,11.00
2018-02-04T09:04:23.689Z,9.50
2018-02-04T09:06:51.162Z,11.97
2018-02-04T09:09:18.645Z,13.13
2018-02-04T09:11:46.091Z,9.97
2018-02-04T09:14:13.565Z,11.50
2018-02-04T09:16:41.909Z,11.43
2018-02-04T09:19:09.371Z,10.67
2018-02-04T09:21:36.853Z,19.50
2018-02-04T09:24:04.313Z,11.00
2018-02-04T09:26:31.778Z,12.77
2018-02-04T09:28:59.249Z,14.70
2018-02-04T09:31:27.495Z,13.20
2018-02-04T09:33:55.091Z,12.63
2018-02-04T09:36:23.381Z,11.57
2018-02-04T09:38:50.811Z,13.80
2018-02-04T09:41:19.054Z,16.33
2018-02-04T09:43:46.518Z,17.40
2018-02-04T09:46:13.975Z,16.57
2018-02-04T09:48:41.454Z,17.77
2018-02-04T09:51:11.396Z,18.37
2018-02-04T09:53:39.672Z,15.60
2018-02-04T09:56:07.895Z,15.67
2018-02-04T09:58:35.385Z,16.43
2018-02-04T10:01:02.861Z,13.30
2018-02-04T10:03:31.085Z,15.67
2018-02-04T10:05:58.594Z,15.07
2018-02-04T10:08:27.033Z,18.10
2018-02-04T10:10:54.483Z,16.23
2018-02-04T10:13:21.943Z,14.87
2018-02-04T10:15:49.412Z,17.70
2018-02-04T10:18:16.855Z,16.53
2018-02-04T10:20:44.496Z,20.77
2018-02-04T10:23:11.979Z,18.30
2018-02-04T10:25:39.436Z,15.27
2018-02-04T10:28:06.900Z,14.03
2018-02-04T10:30:34.385Z,13.20
2018-02-04T10:33:02.199Z,9.60
2018-02-04T10:35:29.659Z,9.07
2018-02-04T10:37:57.480Z,9.40
2018-02-04T10:40:25.447Z,10.13
2018-02-04T10:42:52.907Z,12.07
2018-02-04T10:45:20.356Z,12.20
2018-02-04T10:47:47.819Z,13.77
2018-02-04T10:50:15.278Z,11.33
2018-02-04T10:52:42.760Z,14.70
2018-02-04T10:55:11.002Z,12.13
2018-02-04T10:57:38.499Z,16.40
2018-02-04T11:00:06.594Z,16.60
2018-02-04T11:02:34.026Z,19.73
2018-02-04T11:05:02.258Z,15.20
2018-02-04T11:07:29.737Z,18.50
2018-02-04T11:09:57.193Z,13.00
2018-02-04T11:12:24.803Z,18.97
2018-02-04T11:14:52.478Z,15.57
2018-02-04T11:17:20.242Z,14.67
2018-02-04T11:19:47.688Z,15.50
2018-02-04T11:22:15.146Z,16.17
2018-02-04T11:24:42.644Z,14.33
2018-02-04T11:27:10.087Z,12.67
2018-02-04T11:29:38.386Z,12.47
2018-02-04T11:32:17.675Z,12.70
2018-02-04T11:34:45.250Z,12.90
2018-02-04T11:37:12.734Z,10.83
2018-02-04T11:39:40.206Z,11.20
2018-02-04T11:42:07.855Z,10.13
2018-02-04T11:44:35.323Z,13.23
2018-02-04T11:47:03.204Z,11.73
2018-02-04T11:49:30.938Z,12.10
2018-02-04T11:51:58.523Z,13.57
2018-02-04T11:54:26.191Z,17.23
2018-02-04T11:56:54.207Z,15.43
2018-02-04T11:59:21.711Z,15.43
2018-02-04T12:01:49.364Z,14.07
2018-02-04T12:04:16.937Z,14.53
2018-02-04T12:06:44.391Z,12.60
2018-02-04T12:09:11.837Z,14.07
2018-02-04T12:11:39.639Z,11.47
2018-02-04T12:14:07.859Z,12.73
2018-02-04T12:16:35.515Z,11.93
2018-02-04T12:19:03.027Z,12.27
2018-02-04T12:21:30.593Z,10.83
2018-02-04T12:23:59.583Z,11.77
2018-02-04T12:26:27.867Z,16.73
2018-02-04T12:28:56.811Z,11.70
2018-02-04T12:31:24.263Z,12.27
2018-02-04T12:33:51.857Z,13.23
2018-02-04T12:36:19.396Z,11.70
2018-02-04T12:38:47.688Z,10.90
2018-02-04T12:41:15.243Z,13.87
2018-02-04T12:43:42.700Z,15.17
2018-02-04T12:46:10.287Z,14.17
2018-02-04T12:48:37.899Z,17.00
2018-02-04T12:51:05.376Z,21.63
2018-02-04T12:53:32.919Z,17.43
2018-02-04T12:56:00.423Z,17.83
2018-02-04T12:58:27.891Z,15.70
2018-02-04T13:00:56.139Z,14.93
2018-02-04T13:03:23.619Z,15.43
2018-02-04T13:05:51.183Z,13.20
2018-02-04T13:08:18.804Z,13.30
2018-02-04T13:10:46.491Z,11.10
2018-02-04T13:13:14.359Z,11.00
2018-02-04T13:15:41.841Z,13.10
2018-02-04T13:18:09.295Z,13.83
2018-02-04T13:20:36.957Z,17.97
2018-02-04T13:23:04.526Z,13.47
2018-02-04T13:25:34.207Z,15.97
2018-02-04T13:28:02.580Z,14.03
2018-02-04T13:30:30.037Z,12.53
2018-02-04T13:32:57.522Z,13.83
2018-02-04T13:35:24.949Z,13.93
2018-02-04T13:37:52.420Z,16.73
2018-02-04T13:40:19.915Z,16.23
2018-02-04T13:42:48.159Z,17.23
2018-02-04T13:45:15.623Z,17.83
2018-02-04T13:47:43.069Z,15.10
2018-02-04T13:50:10.546Z,15.03
2018-02-04T13:52:38.009Z,16.63
2018-02-04T13:55:06.274Z,17.73
2018-02-04T13:57:33.733Z,14.33
2018-02-04T14:00:01.252Z,18.30
2018-02-04T14:02:29.595Z,13.37
2018-02-04T14:04:57.866Z,12.53
2018-02-04T14:07:26.109Z,13.73
2018-02-04T14:09:53.564Z,14.07
2018-02-04T14:12:21.137Z,12.20
2018-02-04T14:14:48.603Z,13.30
2018-02-04T14:17:16.194Z,13.83
2018-02-04T14:19:44.451Z,11.63
2018-02-04T14:22:11.969Z,13.90
2018-02-04T14:24:39.460Z,14.80
2018-02-04T14:27:06.918Z,12.50
2018-02-04T14:29:34.379Z,11.30
2018-02-04T14:32:01.896Z,14.53
2018-02-04T14:34:29.370Z,13.37
2018-02-04T14:36:56.855Z,14.47
2018-02-04T14:39:24.320Z,12.47
2018-02-04T14:41:52.978Z,13.87
2018-02-04T14:44:20.423Z,13.80
2018-02-04T14:46:47.926Z,15.70
2018-02-04T14:49:16.204Z,14.53
2018-02-04T14:51:44.430Z,15.60
2018-02-04T14:54:11.976Z,17.23
2018-02-04T14:56:39.415Z,24.67
2018-02-04T14:59:06.963Z,16.20
2018-02-04T15:01:35.182Z,19.23
2018-02-04T15:04:02.681Z,17.83
2018-02-04T15:06:30.163Z,16.87
2018-02-04T15:08:57.648Z,18.93
2018-02-04T15:11:25.127Z,18.63
2018-02-04T15:13:52.616Z,14.50
2018-02-04T15:16:20.081Z,16.87
2018-02-04T15:18:47.515Z,17.07
2018-02-04T15:21:14.983Z,16.57
2018-02-04T15:23:42.445Z,16.10
2018-02-04T15:26:10.006Z,12.90
2018-02-04T15:28:37.463Z,17.40
2018-02-04T15:31:04.947Z,13.50
2018-02-04T15:33:33.217Z,15.27
2018-02-04T15:36:01.426Z,16.50
2018-02-04T15:38:28.921Z,15.03
2018-02-04T15:40:56.397Z,15.20
2018-02-04T15:43:23.837Z,13.63
2018-02-04T15:45:51.310Z,16.00
2018-02-04T15:48:18.767Z,15.30
2018-02-04T15:50:46.226Z,15.90
2018-02-04T15:53:13.708Z,14.60
2018-02-04T15:55:41.983Z,17.90
2018-02-04T15:58:10.623Z,17.77
2018-02-04T16:00:38.067Z,16.30
2018-02-04T16:03:05.905Z,19.00
2018-02-04T16:05:34.134Z,17.90
2018-02-04T16:08:01.627Z,16.43
2018-02-04T16:10:29.914Z,18.07
2018-02-04T16:12:58.126Z,15.70
2018-02-04T16:15:25.600Z,17.80
2018-02-04T16:17:53.071Z,13.53
2018-02-04T16:20:20.550Z,18.97
2018-02-04T16:22:48.787Z,13.30
2018-02-04T16:25:16.237Z,14.93
2018-02-04T16:27:43.739Z,15.13
2018-02-04T16:30:11.973Z,15.47
2018-02-04T16:32:39.470Z,15.37
2018-02-04T16:35:06.925Z,13.30
2018-02-04T16:37:34.383Z,13.53
2018-02-04T16:40:01.881Z,13.10
2018-02-04T16:42:30.071Z,11.50
2018-02-04T16:44:57.554Z,15.70
2018-02-04T16:47:25.029Z,18.57
2018-02-04T16:49:52.470Z,11.67
2018-02-04T16:52:19.943Z,13.20
2018-02-04T16:54:47.400Z,12.83
2018-02-04T16:57:14.860Z,16.83
2018-02-04T16:59:42.317Z,17.07
2018-02-04T17:02:10.183Z,15.00
2018-02-04T17:04:37.648Z,17.77
2018-02-04T17:07:05.098Z,16.80
2018-02-04T17:09:32.564Z,17.80
2018-02-04T17:12:00.050Z,15.37
2018-02-04T17:14:28.263Z,17.30
2018-02-04T17:16:55.717Z,22.73
2018-02-04T17:19:23.179Z,25.07
2018-02-04T17:21:50.677Z,24.20
2018-02-04T17:24:18.130Z,23.33
2018-02-04T17:26:45.583Z,20.90
2018-02-04T17:29:13.043Z,19.20
2018-02-04T17:31:40.510Z,18.13
2018-02-04T17:34:08.752Z,18.63
2018-02-04T17:36:37.040Z,19.77
2018-02-04T17:39:05.403Z,18.47
2018-02-04T17:41:32.879Z,15.77
2018-02-04T17:44:00.346Z,26.53
2018-02-04T17:46:27.792Z,20.30
2018-02-04T17:48:55.262Z,22.60
2018-02-04T17:51:22.723Z,20.43
2018-02-04T17:53:50.192Z,25.87
2018-02-04T17:56:17.649Z,30.07
2018-02-04T17:58:45.099Z,27.30
2018-02-04T18:01:12.595Z,33.60
2018-02-04T18:03:40.076Z,30.10
2018-02-04T18:06:07.577Z,28.90
2018-02-04T18:08:35.043Z,26.87
2018-02-04T18:11:03.279Z,24.60
2018-02-04T18:13:30.751Z,23.70
2018-02-04T18:15:58.211Z,25.20
2018-02-04T18:18:25.663Z,18.20
2018-02-04T18:20:53.140Z,24.70
2018-02-04T18:23:20.606Z,24.83
2018-02-04T18:25:48.042Z,22.77
2018-02-04T18:28:15.540Z,26.00
2018-02-04T18:30:43.797Z,29.17
2018-02-04T18:33:11.267Z,30.23
2018-02-04T18:35:39.504Z,30.00
2018-02-04T18:38:06.951Z,30.07
2018-02-04T18:40:34.456Z,33.10
2018-02-04T18:43:01.901Z,30.93
2018-02-04T18:45:29.460Z,26.27
2018-02-04T18:47:57.140Z,27.73
2018-02-04T18:50:25.416Z,30.83
2018-02-04T18:52:52.856Z,35.30
2018-02-04T18:55:20.332Z,31.60
2018-02-04T18:57:48.615Z,32.53
2018-02-04T19:00:17.026Z,29.13
2018-02-04T19:02:44.503Z,32.80
2018-02-04T19:05:11.975Z,32.17
2018-02-04T19:07:39.441Z,37.37
2018-02-04T19:10:07.060Z,37.13
2018-02-04T19:12:34.663Z,35.67
2018-02-04T19:15:02.182Z,36.47
2018-02-04T19:17:29.695Z,29.87
2018-02-04T19:19:57.200Z,34.10
2018-02-04T19:22:24.706Z,33.90
2018-02-04T19:24:52.260Z,32.70
2018-02-04T19:27:19.771Z,34.37
2018-02-04T19:29:47.292Z,38.27
2018-02-04T19:32:14.847Z,37.13
2018-02-04T19:34:42.509Z,36.97
2018-02-04T19:37:09.971Z,38.50
2018-02-04T19:39:37.854Z,38.20
2018-02-04T19:42:06.065Z,41.50
2018-02-04T19:44:33.541Z,40.20
2018-02-04T19:47:01.054Z,43.67
2018-02-04T19:49:29.315Z,48.87
2018-02-04T19:51:57.106Z,48.03
2018-02-04T19:54:25.404Z,52.40
2018-02-04T19:56:53.112Z,47.60
2018-02-04T19:59:20.575Z,48.57
2018-02-04T20:01:48.038Z,51.43
2018-02-04T20:04:15.806Z,48.00
2018-02-04T20:06:44.048Z,49.20
2018-02-04T20:09:11.619Z,50.53
2018-02-04T20:11:39.104Z,49.43
2018-02-04T20:14:07.456Z,55.80
2018-02-04T20:16:34.928Z,48.77
2018-02-04T20:19:02.457Z,42.83
2018-02-04T20:21:29.941Z,45.37
2018-02-04T20:23:57.814Z,47.40
2018-02-04T20:26:25.358Z,45.40
2018-02-04T20:28:52.844Z,48.70
2018-02-04T20:31:20.346Z,43.67
2018-02-04T20:34:13.466Z,46.33
2018-02-04T20:36:41.763Z,43.30
2018-02-04T20:39:09.270Z,43.27
2018-02-04T20:41:37.136Z,42.70
2018-02-04T20:44:04.579Z,47.50
2018-02-04T20:46:32.079Z,45.77
2018-02-04T20:48:59.543Z,41.53
2018-02-04T20:51:27.873Z,47.20
2018-02-04T20:53:55.356Z,39.03
2018-02-04T20:56:23.654Z,39.63
2018-02-04T20:58:51.111Z,42.73
2018-02-04T21:01:19.394Z,40.40
2018-02-04T21:03:47.659Z,41.40
2018-02-04T21:06:15.123Z,47.33
2018-02-04T21:08:43.370Z,41.27
2018-02-04T21:11:10.874Z,47.87
2018-02-04T21:13:39.148Z,37.13
2018-02-04T21:16:07.383Z,39.30
2018-02-04T21:18:35.239Z,40.77
2018-02-04T21:21:02.875Z,35.70
2018-02-04T21:23:30.334Z,39.33
2018-02-04T21:25:57.902Z,37.17
2018-02-04T21:28:25.415Z,41.87
2018-02-04T21:30:52.899Z,37.00
2018-02-04T21:33:21.149Z,44.77
2018-02-04T21:35:48.868Z,37.67
2018-02-04T21:38:16.344Z,40.30
2018-02-04T21:40:43.854Z,38.00
2018-02-04T21:43:11.365Z,33.60
2018-02-04T21:45:39.003Z,38.40
2018-02-04T21:48:06.508Z,35.50
2018-02-04T21:50:33.993Z,37.60
2018-02-04T21:53:02.351Z,33.50
2018-02-04T21:55:29.885Z,39.17
2018-02-04T21:57:58.063Z,37.50
2018-02-04T22:00:25.760Z,42.20
2018-02-04T22:02:53.253Z,38.57
2018-02-04T22:05:21.544Z,41.60
2018-02-04T22:07:49.052Z,36.73
2018-02-04T22:10:17.611Z,36.37
2018-02-04T22:12:45.089Z,37.40
2018-02-04T22:15:12.695Z,43.47
2018-02-04T22:17:40.205Z,40.63
2018-02-04T22:20:07.709Z,39.90
2018-02-04T22:22:35.457Z,39.00
2018-02-04T22:25:03.763Z,42.90
2018-02-04T22:27:31.361Z,37.47
2018-02-04T22:29:58.904Z,37.17
2018-02-04T22:32:26.401Z,37.50
2018-02-04T22:34:54.671Z,34.77
2018-02-04T22:37:22.142Z,39.07
2018-02-04T22:39:50.472Z,40.23
2018-02-04T22:42:19.142Z,39.90
2018-02-04T22:44:46.623Z,40.67
2018-02-04T22:47:14.103Z,39.50
2018-02-04T22:49:41.658Z,39.20
2018-02-04T22:52:09.177Z,38.33
2018-02-04T22:54:36.627Z,40.07
2018-02-04T22:57:04.115Z,39.90
2018-02-04T22:59:31.667Z,38.20
2018-02-04T23:01:59.205Z,39.57
2018-02-04T23:04:26.665Z,43.30
2018-02-04T23:06:55.008Z,41.20
2018-02-04T23:09:23.418Z,42.37
2018-02-04T23:11:51.007Z,37.90
2018-02-04T23:14:18.605Z,41.63
2018-02-04T23:16:46.839Z,42.80
2018-02-04T23:19:14.446Z,39.00
2018-02-04T23:21:42.731Z,41.13
2018-02-04T23:24:10.224Z,37.87
2018-02-04T23:26:37.729Z,40.57
2018-02-04T23:29:05.288Z,38.53
2018-02-04T23:31:32.806Z,41.73
2018-02-04T23:34:00.255Z,44.83
2018-02-04T23:36:27.742Z,38.93
2018-02-04T23:38:55.279Z,39.67
2018-02-04T23:41:22.765Z,41.10
2018-02-04T23:43:51.056Z,40.60
2018-02-04T23:46:19.959Z,38.87
2018-02-04T23:48:47.519Z,38.60
2018-02-04T23:51:14.982Z,46.40
2018-02-04T23:53:42.471Z,40.53
2018-02-04T23:56:09.963Z,40.13
2018-02-04T23:58:37.424Z,46.33
